Terminal Aerodrome Forecast
Issued by NWS Charleston, WV

Current Version | Previous Version | Graphics & Text | Print | Product List | Glossary On
Versions: 1 2 3 4 5 6 7 8 9 10 11 12 13 14 15 16 17 18 19 20 21 22 23 24 25 26
542
FTUS41 KRLX 251502 AAA
TAFCRW
TAF AMD
KCRW 251502Z 2515/2612 00000KT 6SM -RA BKN060 OVC080
      TEMPO 2515/2517 BKN006
     FM251800 03004KT P6SM BKN040
     FM260100 00000KT P6SM SCT040
     FM260500 00000KT 5SM BR SCT040
     FM260900 00000KT 2SM BR FEW001 SCT010=

USA.gov is the U.S. government's official web portal to all federal, state and local government web resources and services.